sensor_id;sensor_type;location;lat;lon;timestamp;P1;durP1;ratioP1;P2;durP2;ratioP2
23206;SDS011;11773;52.570;13.052;2023-07-30T00:00:04;0.40;;;0.40;;
23206;SDS011;11773;52.570;13.052;2023-07-30T00:02:34;0.40;;;0.40;;
23206;SDS011;11773;52.570;13.052;2023-07-30T00:05:04;0.60;;;0.60;;
23206;SDS011;11773;52.570;13.052;2023-07-30T00:07:34;0.57;;;0.40;;
23206;SDS011;11773;52.570;13.052;2023-07-30T00:10:03;0.50;;;0.50;;
23206;SDS011;11773;52.570;13.052;2023-07-30T00:12:33;0.50;;;0.50;;
23206;SDS011;11773;52.570;13.052;2023-07-30T00:15:03;0.33;;;0.33;;
23206;SDS011;11773;52.570;13.052;2023-07-30T00:17:34;0.50;;;0.50;;
23206;SDS011;11773;52.570;13.052;2023-07-30T00:20:04;0.53;;;0.53;;
23206;SDS011;11773;52.570;13.052;2023-07-30T00:22:36;0.40;;;0.40;;
23206;SDS011;11773;52.570;13.052;2023-07-30T00:25:05;0.60;;;0.60;;
23206;SDS011;11773;52.570;13.052;2023-07-30T00:27:35;0.60;;;0.60;;
23206;SDS011;11773;52.570;13.052;2023-07-30T00:30:05;0.53;;;0.53;;
23206;SDS011;11773;52.570;13.052;2023-07-30T00:32:35;0.50;;;0.50;;
23206;SDS011;11773;52.570;13.052;2023-07-30T00:35:08;0.60;;;0.60;;
23206;SDS011;11773;52.570;13.052;2023-07-30T00:37:38;0.50;;;0.50;;
23206;SDS011;11773;52.570;13.052;2023-07-30T00:40:08;0.50;;;0.50;;
23206;SDS011;11773;52.570;13.052;2023-07-30T00:42:38;0.47;;;0.47;;
23206;SDS011;11773;52.570;13.052;2023-07-30T00:45:08;0.40;;;0.40;;
23206;SDS011;11773;52.570;13.052;2023-07-30T00:47:38;0.37;;;0.37;;
23206;SDS011;11773;52.570;13.052;2023-07-30T00:50:08;0.47;;;0.47;;
23206;SDS011;11773;52.570;13.052;2023-07-30T00:52:42;0.50;;;0.50;;
23206;SDS011;11773;52.570;13.052;2023-07-30T00:55:14;0.40;;;0.40;;
23206;SDS011;11773;52.570;13.052;2023-07-30T00:57:44;0.40;;;0.40;;
23206;SDS011;11773;52.570;13.052;2023-07-30T01:00:14;0.40;;;0.40;;
23206;SDS011;11773;52.570;13.052;2023-07-30T01:02:44;0.60;;;0.60;;
23206;SDS011;11773;52.570;13.052;2023-07-30T01:05:13;0.47;;;0.47;;
23206;SDS011;11773;52.570;13.052;2023-07-30T01:07:43;0.40;;;0.40;;
23206;SDS011;11773;52.570;13.052;2023-07-30T01:10:13;0.50;;;0.50;;
23206;SDS011;11773;52.570;13.052;2023-07-30T01:12:43;0.70;;;0.70;;
23206;SDS011;11773;52.570;13.052;2023-07-30T01:15:14;0.60;;;0.60;;
23206;SDS011;11773;52.570;13.052;2023-07-30T01:17:44;0.50;;;0.50;;
23206;SDS011;11773;52.570;13.052;2023-07-30T01:20:15;0.30;;;0.30;;
23206;SDS011;11773;52.570;13.052;2023-07-30T01:22:44;0.50;;;0.50;;
23206;SDS011;11773;52.570;13.052;2023-07-30T01:25:14;0.60;;;0.60;;
23206;SDS011;11773;52.570;13.052;2023-07-30T01:27:48;0.63;;;0.47;;
23206;SDS011;11773;52.570;13.052;2023-07-30T01:30:22;0.43;;;0.43;;
23206;SDS011;11773;52.570;13.052;2023-07-30T01:32:59;0.40;;;0.40;;
23206;SDS011;11773;52.570;13.052;2023-07-30T01:35:30;0.50;;;0.50;;
23206;SDS011;11773;52.570;13.052;2023-07-30T01:38:02;0.50;;;0.50;;
23206;SDS011;11773;52.570;13.052;2023-07-30T01:40:34;0.40;;;0.40;;
23206;SDS011;11773;52.570;13.052;2023-07-30T01:43:04;0.60;;;0.60;;
23206;SDS011;11773;52.570;13.052;2023-07-30T01:45:34;0.47;;;0.47;;
23206;SDS011;11773;52.570;13.052;2023-07-30T01:48:05;0.57;;;0.57;;
23206;SDS011;11773;52.570;13.052;2023-07-30T01:50:35;0.53;;;0.53;;
23206;SDS011;11773;52.570;13.052;2023-07-30T01:53:05;0.50;;;0.50;;
23206;SDS011;11773;52.570;13.052;2023-07-30T01:55:35;0.70;;;0.70;;
23206;SDS011;11773;52.570;13.052;2023-07-30T01:58:06;0.50;;;0.50;;
23206;SDS011;11773;52.570;13.052;2023-07-30T02:00:35;1.30;;;0.43;;
23206;SDS011;11773;52.570;13.052;2023-07-30T02:03:05;0.50;;;0.50;;
23206;SDS011;11773;52.570;13.052;2023-07-30T02:05:35;0.40;;;0.40;;
23206;SDS011;11773;52.570;13.052;2023-07-30T02:08:05;0.33;;;0.33;;
23206;SDS011;11773;52.570;13.052;2023-07-30T02:10:34;0.50;;;0.50;;
23206;SDS011;11773;52.570;13.052;2023-07-30T02:13:04;0.40;;;0.40;;
23206;SDS011;11773;52.570;13.052;2023-07-30T02:15:33;0.30;;;0.30;;
23206;SDS011;11773;52.570;13.052;2023-07-30T02:18:04;0.50;;;0.50;;
23206;SDS011;11773;52.570;13.052;2023-07-30T02:20:35;0.40;;;0.40;;
23206;SDS011;11773;52.570;13.052;2023-07-30T02:23:05;0.40;;;0.40;;
23206;SDS011;11773;52.570;13.052;2023-07-30T02:25:35;0.53;;;0.53;;
23206;SDS011;11773;52.570;13.052;2023-07-30T02:28:06;0.27;;;0.27;;
23206;SDS011;11773;52.570;13.052;2023-07-30T02:30:35;1.20;;;0.50;;
23206;SDS011;11773;52.570;13.052;2023-07-30T02:33:05;0.47;;;0.47;;
23206;SDS011;11773;52.570;13.052;2023-07-30T02:35:34;0.40;;;0.40;;
23206;SDS011;11773;52.570;13.052;2023-07-30T02:38:04;0.30;;;0.30;;
23206;SDS011;11773;52.570;13.052;2023-07-30T02:40:33;0.30;;;0.30;;
23206;SDS011;11773;52.570;13.052;2023-07-30T02:43:03;0.43;;;0.43;;
23206;SDS011;11773;52.570;13.052;2023-07-30T02:45:33;0.40;;;0.40;;
23206;SDS011;11773;52.570;13.052;2023-07-30T02:48:02;0.40;;;0.40;;
23206;SDS011;11773;52.570;13.052;2023-07-30T02:50:32;0.40;;;0.40;;
23206;SDS011;11773;52.570;13.052;2023-07-30T02:53:02;0.37;;;0.37;;
23206;SDS011;11773;52.570;13.052;2023-07-30T02:55:31;1.30;;;0.40;;
23206;SDS011;11773;52.570;13.052;2023-07-30T02:58:01;0.40;;;0.40;;
23206;SDS011;11773;52.570;13.052;2023-07-30T03:00:30;0.20;;;0.20;;
23206;SDS011;11773;52.570;13.052;2023-07-30T03:03:00;0.40;;;0.40;;
23206;SDS011;11773;52.570;13.052;2023-07-30T03:05:30;0.20;;;0.20;;
23206;SDS011;11773;52.570;13.052;2023-07-30T03:07:59;0.30;;;0.30;;
23206;SDS011;11773;52.570;13.052;2023-07-30T03:10:29;0.30;;;0.30;;
23206;SDS011;11773;52.570;13.052;2023-07-30T03:12:59;1.07;;;0.40;;
23206;SDS011;11773;52.570;13.052;2023-07-30T03:15:28;0.20;;;0.20;;
23206;SDS011;11773;52.570;13.052;2023-07-30T03:17:58;0.40;;;0.40;;
23206;SDS011;11773;52.570;13.052;2023-07-30T03:20:27;0.30;;;0.30;;
23206;SDS011;11773;52.570;13.052;2023-07-30T03:22:57;0.20;;;0.20;;
23206;SDS011;11773;52.570;13.052;2023-07-30T03:25:26;0.30;;;0.30;;
23206;SDS011;11773;52.570;13.052;2023-07-30T03:27:56;0.37;;;0.37;;
23206;SDS011;11773;52.570;13.052;2023-07-30T03:30:26;0.30;;;0.30;;
23206;SDS011;11773;52.570;13.052;2023-07-30T03:32:55;0.30;;;0.30;;
23206;SDS011;11773;52.570;13.052;2023-07-30T03:35:25;0.20;;;0.20;;
23206;SDS011;11773;52.570;13.052;2023-07-30T03:37:54;0.47;;;0.47;;
23206;SDS011;11773;52.570;13.052;2023-07-30T03:40:24;0.20;;;0.20;;
23206;SDS011;11773;52.570;13.052;2023-07-30T03:42:54;0.37;;;0.37;;
23206;SDS011;11773;52.570;13.052;2023-07-30T03:45:23;0.40;;;0.40;;
23206;SDS011;11773;52.570;13.052;2023-07-30T03:47:53;0.30;;;0.30;;
23206;SDS011;11773;52.570;13.052;2023-07-30T03:50:22;0.37;;;0.37;;
23206;SDS011;11773;52.570;13.052;2023-07-30T03:52:52;0.40;;;0.40;;
23206;SDS011;11773;52.570;13.052;2023-07-30T03:55:22;0.33;;;0.33;;
23206;SDS011;11773;52.570;13.052;2023-07-30T03:57:52;0.30;;;0.30;;
23206;SDS011;11773;52.570;13.052;2023-07-30T04:00:21;0.50;;;0.50;;
23206;SDS011;11773;52.570;13.052;2023-07-30T04:02:51;0.33;;;0.30;;
23206;SDS011;11773;52.570;13.052;2023-07-30T04:05:21;0.30;;;0.30;;
23206;SDS011;11773;52.570;13.052;2023-07-30T04:07:51;0.40;;;0.40;;
23206;SDS011;11773;52.570;13.052;2023-07-30T04:10:20;0.40;;;0.40;;
23206;SDS011;11773;52.570;13.052;2023-07-30T04:12:50;0.30;;;0.30;;
23206;SDS011;11773;52.570;13.052;2023-07-30T04:15:20;0.40;;;0.40;;
23206;SDS011;11773;52.570;13.052;2023-07-30T04:17:49;0.40;;;0.40;;
23206;SDS011;11773;52.570;13.052;2023-07-30T04:20:19;0.30;;;0.30;;
23206;SDS011;11773;52.570;13.052;2023-07-30T04:22:48;0.30;;;0.30;;
23206;SDS011;11773;52.570;13.052;2023-07-30T04:25:18;0.30;;;0.30;;
23206;SDS011;11773;52.570;13.052;2023-07-30T04:27:48;0.40;;;0.40;;
23206;SDS011;11773;52.570;13.052;2023-07-30T04:30:18;0.40;;;0.40;;
23206;SDS011;11773;52.570;13.052;2023-07-30T04:32:47;0.30;;;0.30;;
23206;SDS011;11773;52.570;13.052;2023-07-30T04:35:17;0.20;;;0.20;;
23206;SDS011;11773;52.570;13.052;2023-07-30T04:37:47;0.37;;;0.37;;
23206;SDS011;11773;52.570;13.052;2023-07-30T04:40:16;0.37;;;0.37;;
23206;SDS011;11773;52.570;13.052;2023-07-30T04:42:46;0.43;;;0.43;;
23206;SDS011;11773;52.570;13.052;2023-07-30T04:45:16;0.50;;;0.50;;
23206;SDS011;11773;52.570;13.052;2023-07-30T04:47:46;0.30;;;0.30;;
23206;SDS011;11773;52.570;13.052;2023-07-30T04:50:15;0.30;;;0.30;;
23206;SDS011;11773;52.570;13.052;2023-07-30T04:52:45;0.50;;;0.50;;
23206;SDS011;11773;52.570;13.052;2023-07-30T04:55:14;0.40;;;0.40;;
23206;SDS011;11773;52.570;13.052;2023-07-30T04:57:44;0.40;;;0.40;;
23206;SDS011;11773;52.570;13.052;2023-07-30T05:00:13;0.40;;;0.40;;
23206;SDS011;11773;52.570;13.052;2023-07-30T05:02:43;0.57;;;0.57;;
23206;SDS011;11773;52.570;13.052;2023-07-30T05:05:13;0.60;;;0.60;;
23206;SDS011;11773;52.570;13.052;2023-07-30T05:07:43;0.50;;;0.50;;
23206;SDS011;11773;52.570;13.052;2023-07-30T05:10:12;0.50;;;0.50;;
23206;SDS011;11773;52.570;13.052;2023-07-30T05:12:43;0.60;;;0.60;;
23206;SDS011;11773;52.570;13.052;2023-07-30T05:15:12;0.50;;;0.50;;
23206;SDS011;11773;52.570;13.052;2023-07-30T05:17:42;0.83;;;0.83;;
23206;SDS011;11773;52.570;13.052;2023-07-30T05:20:11;0.67;;;0.67;;
23206;SDS011;11773;52.570;13.052;2023-07-30T05:22:41;0.70;;;0.70;;
23206;SDS011;11773;52.570;13.052;2023-07-30T05:25:10;0.60;;;0.60;;
23206;SDS011;11773;52.570;13.052;2023-07-30T05:27:40;0.77;;;0.77;;
23206;SDS011;11773;52.570;13.052;2023-07-30T05:30:10;0.40;;;0.40;;
23206;SDS011;11773;52.570;13.052;2023-07-30T05:32:39;0.93;;;0.70;;
23206;SDS011;11773;52.570;13.052;2023-07-30T05:35:09;0.60;;;0.60;;
23206;SDS011;11773;52.570;13.052;2023-07-30T05:37:38;0.80;;;0.80;;
23206;SDS011;11773;52.570;13.052;2023-07-30T05:40:08;0.70;;;0.70;;
23206;SDS011;11773;52.570;13.052;2023-07-30T05:42:38;0.70;;;0.70;;
23206;SDS011;11773;52.570;13.052;2023-07-30T05:45:08;0.53;;;0.53;;
23206;SDS011;11773;52.570;13.052;2023-07-30T05:47:37;0.70;;;0.70;;
23206;SDS011;11773;52.570;13.052;2023-07-30T05:50:07;0.70;;;0.70;;
23206;SDS011;11773;52.570;13.052;2023-07-30T05:52:37;0.90;;;0.90;;
23206;SDS011;11773;52.570;13.052;2023-07-30T05:55:07;1.10;;;1.10;;
23206;SDS011;11773;52.570;13.052;2023-07-30T05:57:37;0.90;;;0.90;;
23206;SDS011;11773;52.570;13.052;2023-07-30T06:00:06;0.90;;;0.90;;
23206;SDS011;11773;52.570;13.052;2023-07-30T06:02:36;1.00;;;1.00;;
23206;SDS011;11773;52.570;13.052;2023-07-30T06:05:06;1.13;;;1.13;;
23206;SDS011;11773;52.570;13.052;2023-07-30T06:07:36;1.00;;;1.00;;
23206;SDS011;11773;52.570;13.052;2023-07-30T06:10:06;0.80;;;0.80;;
23206;SDS011;11773;52.570;13.052;2023-07-30T06:12:36;1.17;;;1.07;;
23206;SDS011;11773;52.570;13.052;2023-07-30T06:15:06;0.87;;;0.87;;
23206;SDS011;11773;52.570;13.052;2023-07-30T06:17:37;0.80;;;0.80;;
23206;SDS011;11773;52.570;13.052;2023-07-30T06:20:07;0.80;;;0.80;;
23206;SDS011;11773;52.570;13.052;2023-07-30T06:22:37;0.60;;;0.60;;
23206;SDS011;11773;52.570;13.052;2023-07-30T06:25:07;0.90;;;0.90;;
23206;SDS011;11773;52.570;13.052;2023-07-30T06:27:36;1.60;;;1.20;;
23206;SDS011;11773;52.570;13.052;2023-07-30T06:30:06;0.77;;;0.77;;
23206;SDS011;11773;52.570;13.052;2023-07-30T06:32:36;1.33;;;1.23;;
23206;SDS011;11773;52.570;13.052;2023-07-30T06:35:06;1.30;;;1.20;;
23206;SDS011;11773;52.570;13.052;2023-07-30T06:37:36;1.20;;;1.20;;
23206;SDS011;11773;52.570;13.052;2023-07-30T06:40:05;1.00;;;1.00;;
23206;SDS011;11773;52.570;13.052;2023-07-30T06:42:36;1.20;;;1.10;;
23206;SDS011;11773;52.570;13.052;2023-07-30T06:45:06;1.10;;;1.10;;
23206;SDS011;11773;52.570;13.052;2023-07-30T06:47:36;1.20;;;1.20;;
23206;SDS011;11773;52.570;13.052;2023-07-30T06:50:06;1.37;;;1.27;;
23206;SDS011;11773;52.570;13.052;2023-07-30T06:52:36;1.10;;;1.10;;
23206;SDS011;11773;52.570;13.052;2023-07-30T06:55:05;0.90;;;0.90;;
23206;SDS011;11773;52.570;13.052;2023-07-30T06:57:35;1.50;;;1.40;;
23206;SDS011;11773;52.570;13.052;2023-07-30T07:00:05;1.00;;;1.00;;
23206;SDS011;11773;52.570;13.052;2023-07-30T07:02:35;1.03;;;1.03;;
23206;SDS011;11773;52.570;13.052;2023-07-30T07:05:05;1.47;;;1.37;;
23206;SDS011;11773;52.570;13.052;2023-07-30T07:07:35;1.10;;;1.10;;
23206;SDS011;11773;52.570;13.052;2023-07-30T07:10:05;1.13;;;1.13;;
23206;SDS011;11773;52.570;13.052;2023-07-30T07:12:34;1.40;;;1.30;;
23206;SDS011;11773;52.570;13.052;2023-07-30T07:15:05;1.37;;;1.27;;
23206;SDS011;11773;52.570;13.052;2023-07-30T07:17:35;1.10;;;1.10;;
23206;SDS011;11773;52.570;13.052;2023-07-30T07:20:05;1.07;;;1.07;;
23206;SDS011;11773;52.570;13.052;2023-07-30T07:22:35;1.17;;;1.10;;
23206;SDS011;11773;52.570;13.052;2023-07-30T07:25:05;0.90;;;0.90;;
23206;SDS011;11773;52.570;13.052;2023-07-30T07:27:34;1.57;;;1.00;;
23206;SDS011;11773;52.570;13.052;2023-07-30T07:30:04;1.30;;;1.20;;
23206;SDS011;11773;52.570;13.052;2023-07-30T07:32:35;1.10;;;1.10;;
23206;SDS011;11773;52.570;13.052;2023-07-30T07:35:06;1.00;;;1.00;;
23206;SDS011;11773;52.570;13.052;2023-07-30T07:37:36;1.57;;;1.00;;
23206;SDS011;11773;52.570;13.052;2023-07-30T07:40:06;0.97;;;0.97;;
23206;SDS011;11773;52.570;13.052;2023-07-30T07:42:37;1.47;;;1.17;;
23206;SDS011;11773;52.570;13.052;2023-07-30T07:45:07;1.00;;;1.00;;
23206;SDS011;11773;52.570;13.052;2023-07-30T07:47:37;1.30;;;1.20;;
23206;SDS011;11773;52.570;13.052;2023-07-30T07:50:07;1.30;;;1.13;;
23206;SDS011;11773;52.570;13.052;2023-07-30T07:52:37;1.33;;;1.23;;
23206;SDS011;11773;52.570;13.052;2023-07-30T07:55:08;1.00;;;1.00;;
23206;SDS011;11773;52.570;13.052;2023-07-30T07:57:37;1.67;;;1.10;;
23206;SDS011;11773;52.570;13.052;2023-07-30T08:00:07;1.93;;;1.50;;
23206;SDS011;11773;52.570;13.052;2023-07-30T08:02:37;1.50;;;1.40;;
23206;SDS011;11773;52.570;13.052;2023-07-30T08:05:07;1.20;;;1.10;;
23206;SDS011;11773;52.570;13.052;2023-07-30T08:07:37;1.10;;;1.03;;
23206;SDS011;11773;52.570;13.052;2023-07-30T08:10:06;1.53;;;1.17;;
23206;SDS011;11773;52.570;13.052;2023-07-30T08:12:36;1.10;;;1.10;;
23206;SDS011;11773;52.570;13.052;2023-07-30T08:15:06;1.20;;;1.10;;
23206;SDS011;11773;52.570;13.052;2023-07-30T08:17:36;1.13;;;1.03;;
23206;SDS011;11773;52.570;13.052;2023-07-30T08:20:05;1.17;;;1.07;;
23206;SDS011;11773;52.570;13.052;2023-07-30T08:22:35;1.30;;;1.20;;
23206;SDS011;11773;52.570;13.052;2023-07-30T08:25:05;0.90;;;0.90;;
23206;SDS011;11773;52.570;13.052;2023-07-30T08:27:35;1.13;;;0.93;;
23206;SDS011;11773;52.570;13.052;2023-07-30T08:30:06;1.07;;;1.07;;
23206;SDS011;11773;52.570;13.052;2023-07-30T08:32:36;0.90;;;0.90;;
23206;SDS011;11773;52.570;13.052;2023-07-30T08:35:08;1.00;;;1.00;;
23206;SDS011;11773;52.570;13.052;2023-07-30T08:37:38;1.20;;;1.10;;
23206;SDS011;11773;52.570;13.052;2023-07-30T08:40:08;1.10;;;1.10;;
23206;SDS011;11773;52.570;13.052;2023-07-30T08:42:38;1.00;;;0.93;;
23206;SDS011;11773;52.570;13.052;2023-07-30T08:45:08;1.30;;;1.20;;
23206;SDS011;11773;52.570;13.052;2023-07-30T08:47:39;1.30;;;1.20;;
23206;SDS011;11773;52.570;13.052;2023-07-30T08:50:09;1.00;;;1.00;;
23206;SDS011;11773;52.570;13.052;2023-07-30T08:52:39;1.20;;;1.10;;
23206;SDS011;11773;52.570;13.052;2023-07-30T08:55:09;1.20;;;1.10;;
23206;SDS011;11773;52.570;13.052;2023-07-30T08:57:40;1.00;;;0.93;;
23206;SDS011;11773;52.570;13.052;2023-07-30T09:00:12;0.90;;;0.90;;
23206;SDS011;11773;52.570;13.052;2023-07-30T09:02:48;0.80;;;0.80;;
23206;SDS011;11773;52.570;13.052;2023-07-30T09:05:22;0.70;;;0.67;;
23206;SDS011;11773;52.570;13.052;2023-07-30T09:07:57;0.90;;;0.90;;
23206;SDS011;11773;52.570;13.052;2023-07-30T09:10:27;0.70;;;0.70;;
23206;SDS011;11773;52.570;13.052;2023-07-30T09:12:57;0.80;;;0.80;;
23206;SDS011;11773;52.570;13.052;2023-07-30T09:15:30;1.17;;;0.80;;
23206;SDS011;11773;52.570;13.052;2023-07-30T09:18:02;1.43;;;1.00;;
23206;SDS011;11773;52.570;13.052;2023-07-30T09:20:39;1.13;;;1.03;;
23206;SDS011;11773;52.570;13.052;2023-07-30T09:23:09;0.80;;;0.80;;
23206;SDS011;11773;52.570;13.052;2023-07-30T09:25:40;0.90;;;0.90;;
23206;SDS011;11773;52.570;13.052;2023-07-30T09:28:10;1.13;;;1.13;;
23206;SDS011;11773;52.570;13.052;2023-07-30T09:30:39;0.80;;;0.80;;
23206;SDS011;11773;52.570;13.052;2023-07-30T09:33:09;1.10;;;1.00;;
23206;SDS011;11773;52.570;13.052;2023-07-30T09:35:40;0.90;;;0.90;;
23206;SDS011;11773;52.570;13.052;2023-07-30T09:38:11;1.07;;;1.07;;
23206;SDS011;11773;52.570;13.052;2023-07-30T09:40:42;0.93;;;0.93;;
23206;SDS011;11773;52.570;13.052;2023-07-30T09:43:12;0.80;;;0.80;;
23206;SDS011;11773;52.570;13.052;2023-07-30T09:45:43;0.80;;;0.80;;
23206;SDS011;11773;52.570;13.052;2023-07-30T09:48:15;0.80;;;0.80;;
23206;SDS011;11773;52.570;13.052;2023-07-30T09:50:44;0.70;;;0.70;;
23206;SDS011;11773;52.570;13.052;2023-07-30T09:53:14;1.00;;;1.00;;
23206;SDS011;11773;52.570;13.052;2023-07-30T09:55:46;1.07;;;1.07;;
23206;SDS011;11773;52.570;13.052;2023-07-30T09:58:15;1.00;;;1.00;;
23206;SDS011;11773;52.570;13.052;2023-07-30T10:00:45;0.80;;;0.80;;
23206;SDS011;11773;52.570;13.052;2023-07-30T10:03:17;1.07;;;0.97;;
23206;SDS011;11773;52.570;13.052;2023-07-30T10:05:48;1.07;;;1.03;;
23206;SDS011;11773;52.570;13.052;2023-07-30T10:08:21;1.27;;;1.10;;
23206;SDS011;11773;52.570;13.052;2023-07-30T10:10:54;0.90;;;0.90;;
23206;SDS011;11773;52.570;13.052;2023-07-30T10:13:25;0.90;;;0.90;;
23206;SDS011;11773;52.570;13.052;2023-07-30T10:15:55;0.90;;;0.90;;
23206;SDS011;11773;52.570;13.052;2023-07-30T10:18:38;0.90;;;0.90;;
23206;SDS011;11773;52.570;13.052;2023-07-30T10:21:10;1.23;;;0.93;;
23206;SDS011;11773;52.570;13.052;2023-07-30T10:23:48;0.83;;;0.80;;
23206;SDS011;11773;52.570;13.052;2023-07-30T10:26:16;0.80;;;0.80;;
23206;SDS011;11773;52.570;13.052;2023-07-30T10:28:54;1.50;;;1.00;;
23206;SDS011;11773;52.570;13.052;2023-07-30T10:31:43;0.80;;;0.80;;
23206;SDS011;11773;52.570;13.052;2023-07-30T10:34:18;1.00;;;1.00;;
23206;SDS011;11773;52.570;13.052;2023-07-30T10:36:48;1.20;;;0.90;;
23206;SDS011;11773;52.570;13.052;2023-07-30T10:39:19;2.33;;;1.27;;
23206;SDS011;11773;52.570;13.052;2023-07-30T10:41:57;1.40;;;1.07;;
23206;SDS011;11773;52.570;13.052;2023-07-30T10:44:33;1.20;;;1.10;;
23206;SDS011;11773;52.570;13.052;2023-07-30T10:47:03;0.80;;;0.80;;
23206;SDS011;11773;52.570;13.052;2023-07-30T10:49:35;1.07;;;1.00;;
23206;SDS011;11773;52.570;13.052;2023-07-30T10:52:09;0.83;;;0.80;;
23206;SDS011;11773;52.570;13.052;2023-07-30T10:54:38;1.57;;;1.20;;
23206;SDS011;11773;52.570;13.052;2023-07-30T10:57:08;1.30;;;1.17;;
23206;SDS011;11773;52.570;13.052;2023-07-30T10:59:38;0.97;;;0.97;;
23206;SDS011;11773;52.570;13.052;2023-07-30T11:02:10;1.20;;;1.10;;
23206;SDS011;11773;52.570;13.052;2023-07-30T11:04:40;1.13;;;1.03;;
23206;SDS011;11773;52.570;13.052;2023-07-30T11:07:09;0.90;;;0.90;;
23206;SDS011;11773;52.570;13.052;2023-07-30T11:09:44;1.30;;;1.20;;
23206;SDS011;11773;52.570;13.052;2023-07-30T11:12:15;1.13;;;1.03;;
23206;SDS011;11773;52.570;13.052;2023-07-30T11:14:47;1.53;;;1.10;;
23206;SDS011;11773;52.570;13.052;2023-07-30T11:17:17;1.00;;;0.90;;
23206;SDS011;11773;52.570;13.052;2023-07-30T11:19:48;1.03;;;0.97;;
23206;SDS011;11773;52.570;13.052;2023-07-30T11:22:18;0.77;;;0.77;;
23206;SDS011;11773;52.570;13.052;2023-07-30T11:24:59;1.30;;;1.00;;
23206;SDS011;11773;52.570;13.052;2023-07-30T11:27:30;1.00;;;0.90;;
23206;SDS011;11773;52.570;13.052;2023-07-30T11:30:13;1.03;;;0.80;;
23206;SDS011;11773;52.570;13.052;2023-07-30T11:32:43;1.17;;;0.87;;
23206;SDS011;11773;52.570;13.052;2023-07-30T11:35:13;1.00;;;1.00;;
23206;SDS011;11773;52.570;13.052;2023-07-30T11:37:45;0.80;;;0.80;;
23206;SDS011;11773;52.570;13.052;2023-07-30T11:40:15;1.23;;;1.10;;
23206;SDS011;11773;52.570;13.052;2023-07-30T11:42:45;1.20;;;1.10;;
23206;SDS011;11773;52.570;13.052;2023-07-30T11:45:19;1.07;;;0.97;;
23206;SDS011;11773;52.570;13.052;2023-07-30T11:47:51;1.77;;;0.90;;
23206;SDS011;11773;52.570;13.052;2023-07-30T11:50:21;0.90;;;0.90;;
23206;SDS011;11773;52.570;13.052;2023-07-30T11:52:56;1.27;;;0.80;;
23206;SDS011;11773;52.570;13.052;2023-07-30T11:55:23;0.83;;;0.83;;
23206;SDS011;11773;52.570;13.052;2023-07-30T11:58:15;0.70;;;0.70;;
23206;SDS011;11773;52.570;13.052;2023-07-30T12:00:44;0.97;;;0.90;;
23206;SDS011;11773;52.570;13.052;2023-07-30T12:03:14;0.80;;;0.80;;
23206;SDS011;11773;52.570;13.052;2023-07-30T12:05:44;0.70;;;0.70;;
23206;SDS011;11773;52.570;13.052;2023-07-30T12:08:17;1.10;;;1.00;;
23206;SDS011;11773;52.570;13.052;2023-07-30T12:11:08;0.63;;;0.60;;
23206;SDS011;11773;52.570;13.052;2023-07-30T12:13:42;0.87;;;0.87;;
23206;SDS011;11773;52.570;13.052;2023-07-30T12:16:13;1.33;;;0.97;;
23206;SDS011;11773;52.570;13.052;2023-07-30T12:18:45;0.97;;;0.97;;
23206;SDS011;11773;52.570;13.052;2023-07-30T12:21:15;1.10;;;1.00;;
23206;SDS011;11773;52.570;13.052;2023-07-30T12:23:44;0.90;;;0.90;;
23206;SDS011;11773;52.570;13.052;2023-07-30T12:26:14;1.80;;;1.10;;
23206;SDS011;11773;52.570;13.052;2023-07-30T12:28:44;0.63;;;0.60;;
23206;SDS011;11773;52.570;13.052;2023-07-30T12:31:14;1.20;;;1.10;;
23206;SDS011;11773;52.570;13.052;2023-07-30T12:33:43;1.10;;;1.00;;
23206;SDS011;11773;52.570;13.052;2023-07-30T12:36:13;1.20;;;1.10;;
23206;SDS011;11773;52.570;13.052;2023-07-30T12:38:43;0.80;;;0.80;;
23206;SDS011;11773;52.570;13.052;2023-07-30T12:41:13;1.07;;;0.93;;
23206;SDS011;11773;52.570;13.052;2023-07-30T12:43:42;1.20;;;1.07;;
23206;SDS011;11773;52.570;13.052;2023-07-30T12:46:12;1.07;;;1.07;;
23206;SDS011;11773;52.570;13.052;2023-07-30T12:48:42;1.00;;;1.00;;
23206;SDS011;11773;52.570;13.052;2023-07-30T12:51:11;1.07;;;0.97;;
23206;SDS011;11773;52.570;13.052;2023-07-30T12:53:41;0.87;;;0.87;;
23206;SDS011;11773;52.570;13.052;2023-07-30T12:56:10;1.00;;;1.00;;
23206;SDS011;11773;52.570;13.052;2023-07-30T12:58:42;0.90;;;0.90;;
23206;SDS011;11773;52.570;13.052;2023-07-30T13:01:11;0.93;;;0.83;;
23206;SDS011;11773;52.570;13.052;2023-07-30T13:03:41;0.60;;;0.60;;
23206;SDS011;11773;52.570;13.052;2023-07-30T13:06:13;0.87;;;0.87;;
23206;SDS011;11773;52.570;13.052;2023-07-30T13:08:42;0.73;;;0.73;;
23206;SDS011;11773;52.570;13.052;2023-07-30T13:11:12;0.97;;;0.93;;
23206;SDS011;11773;52.570;13.052;2023-07-30T13:13:42;1.40;;;1.30;;
23206;SDS011;11773;52.570;13.052;2023-07-30T13:16:11;0.80;;;0.80;;
23206;SDS011;11773;52.570;13.052;2023-07-30T13:18:41;0.80;;;0.80;;
23206;SDS011;11773;52.570;13.052;2023-07-30T13:21:11;0.80;;;0.70;;
23206;SDS011;11773;52.570;13.052;2023-07-30T13:23:40;1.07;;;0.80;;
23206;SDS011;11773;52.570;13.052;2023-07-30T13:26:10;0.90;;;0.80;;
23206;SDS011;11773;52.570;13.052;2023-07-30T13:28:40;0.60;;;0.60;;
23206;SDS011;11773;52.570;13.052;2023-07-30T13:31:10;0.80;;;0.80;;
23206;SDS011;11773;52.570;13.052;2023-07-30T13:33:39;0.63;;;0.63;;
23206;SDS011;11773;52.570;13.052;2023-07-30T13:36:09;0.80;;;0.80;;
23206;SDS011;11773;52.570;13.052;2023-07-30T13:38:39;0.50;;;0.50;;
23206;SDS011;11773;52.570;13.052;2023-07-30T13:41:10;0.60;;;0.60;;
23206;SDS011;11773;52.570;13.052;2023-07-30T13:43:40;0.40;;;0.40;;
23206;SDS011;11773;52.570;13.052;2023-07-30T13:46:09;0.73;;;0.60;;
23206;SDS011;11773;52.570;13.052;2023-07-30T13:48:39;0.50;;;0.50;;
23206;SDS011;11773;52.570;13.052;2023-07-30T13:51:09;0.47;;;0.47;;
23206;SDS011;11773;52.570;13.052;2023-07-30T13:53:38;0.50;;;0.50;;
23206;SDS011;11773;52.570;13.052;2023-07-30T13:56:08;0.50;;;0.50;;
23206;SDS011;11773;52.570;13.052;2023-07-30T13:58:38;0.63;;;0.63;;
23206;SDS011;11773;52.570;13.052;2023-07-30T14:01:07;0.87;;;0.73;;
23206;SDS011;11773;52.570;13.052;2023-07-30T14:03:37;0.40;;;0.40;;
23206;SDS011;11773;52.570;13.052;2023-07-30T14:06:07;0.73;;;0.60;;
23206;SDS011;11773;52.570;13.052;2023-07-30T14:08:36;0.70;;;0.60;;
23206;SDS011;11773;52.570;13.052;2023-07-30T14:11:06;0.63;;;0.63;;
23206;SDS011;11773;52.570;13.052;2023-07-30T14:13:36;1.10;;;1.00;;
23206;SDS011;11773;52.570;13.052;2023-07-30T14:16:05;1.07;;;0.93;;
23206;SDS011;11773;52.570;13.052;2023-07-30T14:18:35;1.07;;;0.70;;
23206;SDS011;11773;52.570;13.052;2023-07-30T14:21:06;0.90;;;0.90;;
23206;SDS011;11773;52.570;13.052;2023-07-30T14:23:35;1.00;;;0.87;;
23206;SDS011;11773;52.570;13.052;2023-07-30T14:26:06;0.70;;;0.70;;
23206;SDS011;11773;52.570;13.052;2023-07-30T14:28:36;0.60;;;0.60;;
23206;SDS011;11773;52.570;13.052;2023-07-30T14:31:06;0.77;;;0.70;;
23206;SDS011;11773;52.570;13.052;2023-07-30T14:33:35;0.50;;;0.50;;
23206;SDS011;11773;52.570;13.052;2023-07-30T14:36:05;1.67;;;0.97;;
23206;SDS011;11773;52.570;13.052;2023-07-30T14:38:36;1.03;;;1.00;;
23206;SDS011;11773;52.570;13.052;2023-07-30T14:41:06;1.10;;;0.80;;
23206;SDS011;11773;52.570;13.052;2023-07-30T14:43:37;0.70;;;0.70;;
23206;SDS011;11773;52.570;13.052;2023-07-30T14:46:06;0.67;;;0.67;;
23206;SDS011;11773;52.570;13.052;2023-07-30T14:48:37;0.50;;;0.50;;
23206;SDS011;11773;52.570;13.052;2023-07-30T14:51:08;0.67;;;0.67;;